sensor_id;sensor_type;location;lat;lon;timestamp;P1;durP1;ratioP1;P2;durP2;ratioP2
51854;SDS011;37895;53.240;6.572;2023-05-29T00:01:34;18.90;;;5.60;;
51854;SDS011;37895;53.240;6.572;2023-05-29T00:04:01;14.77;;;4.53;;
51854;SDS011;37895;53.240;6.572;2023-05-29T00:06:26;18.30;;;5.45;;
51854;SDS011;37895;53.240;6.572;2023-05-29T00:08:52;14.10;;;4.38;;
51854;SDS011;37895;53.240;6.572;2023-05-29T00:11:18;14.38;;;4.40;;
51854;SDS011;37895;53.240;6.572;2023-05-29T00:13:43;18.95;;;5.05;;
51854;SDS011;37895;53.240;6.572;2023-05-29T00:16:09;16.67;;;5.37;;
51854;SDS011;37895;53.240;6.572;2023-05-29T00:18:35;15.52;;;4.82;;
51854;SDS011;37895;53.240;6.572;2023-05-29T00:21:01;17.23;;;4.70;;
51854;SDS011;37895;53.240;6.572;2023-05-29T00:23:27;16.30;;;4.20;;
51854;SDS011;37895;53.240;6.572;2023-05-29T00:25:52;16.93;;;5.40;;
51854;SDS011;37895;53.240;6.572;2023-05-29T00:28:18;16.88;;;4.82;;
51854;SDS011;37895;53.240;6.572;2023-05-29T00:30:44;12.63;;;4.25;;
51854;SDS011;37895;53.240;6.572;2023-05-29T00:33:10;14.95;;;4.60;;
51854;SDS011;37895;53.240;6.572;2023-05-29T00:35:36;21.00;;;4.95;;
51854;SDS011;37895;53.240;6.572;2023-05-29T00:38:01;17.20;;;4.53;;
51854;SDS011;37895;53.240;6.572;2023-05-29T00:40:27;12.98;;;3.80;;
51854;SDS011;37895;53.240;6.572;2023-05-29T00:42:52;18.05;;;4.50;;
51854;SDS011;37895;53.240;6.572;2023-05-29T00:45:18;16.57;;;5.93;;
51854;SDS011;37895;53.240;6.572;2023-05-29T00:47:44;20.30;;;7.15;;
51854;SDS011;37895;53.240;6.572;2023-05-29T00:50:10;16.55;;;5.20;;
51854;SDS011;37895;53.240;6.572;2023-05-29T00:52:39;19.10;;;5.45;;
51854;SDS011;37895;53.240;6.572;2023-05-29T00:55:10;20.88;;;5.57;;
51854;SDS011;37895;53.240;6.572;2023-05-29T00:57:36;16.48;;;5.07;;
51854;SDS011;37895;53.240;6.572;2023-05-29T01:00:04;17.02;;;5.10;;
51854;SDS011;37895;53.240;6.572;2023-05-29T01:02:38;14.85;;;5.07;;
51854;SDS011;37895;53.240;6.572;2023-05-29T01:05:06;16.77;;;5.07;;
51854;SDS011;37895;53.240;6.572;2023-05-29T01:07:34;14.95;;;5.03;;
51854;SDS011;37895;53.240;6.572;2023-05-29T01:10:00;17.02;;;4.57;;
51854;SDS011;37895;53.240;6.572;2023-05-29T01:15:35;17.08;;;5.10;;
51854;SDS011;37895;53.240;6.572;2023-05-29T01:29:00;16.80;;;4.63;;
51854;SDS011;37895;53.240;6.572;2023-05-29T01:31:27;15.18;;;4.75;;
51854;SDS011;37895;53.240;6.572;2023-05-29T01:33:57;12.40;;;4.57;;
51854;SDS011;37895;53.240;6.572;2023-05-29T01:36:25;15.40;;;4.47;;
51854;SDS011;37895;53.240;6.572;2023-05-29T01:38:51;14.77;;;4.75;;
51854;SDS011;37895;53.240;6.572;2023-05-29T01:41:20;15.13;;;4.38;;
51854;SDS011;37895;53.240;6.572;2023-05-29T01:43:46;17.55;;;4.55;;
51854;SDS011;37895;53.240;6.572;2023-05-29T01:46:13;14.88;;;4.82;;
51854;SDS011;37895;53.240;6.572;2023-05-29T01:48:43;13.20;;;4.60;;
51854;SDS011;37895;53.240;6.572;2023-05-29T01:51:10;13.05;;;4.65;;
51854;SDS011;37895;53.240;6.572;2023-05-29T01:53:37;17.10;;;4.75;;
51854;SDS011;37895;53.240;6.572;2023-05-29T01:58:30;13.82;;;4.95;;
51854;SDS011;37895;53.240;6.572;2023-05-29T02:00:57;15.63;;;5.00;;
51854;SDS011;37895;53.240;6.572;2023-05-29T02:03:23;17.58;;;4.72;;
51854;SDS011;37895;53.240;6.572;2023-05-29T02:05:49;18.60;;;4.97;;
51854;SDS011;37895;53.240;6.572;2023-05-29T02:08:15;20.45;;;4.93;;
51854;SDS011;37895;53.240;6.572;2023-05-29T02:10:41;14.63;;;4.95;;
51854;SDS011;37895;53.240;6.572;2023-05-29T02:13:06;14.88;;;5.25;;
51854;SDS011;37895;53.240;6.572;2023-05-29T02:15:32;16.92;;;4.90;;
51854;SDS011;37895;53.240;6.572;2023-05-29T02:17:57;20.83;;;5.30;;
51854;SDS011;37895;53.240;6.572;2023-05-29T02:20:25;16.77;;;5.10;;
51854;SDS011;37895;53.240;6.572;2023-05-29T02:22:52;15.80;;;5.05;;
51854;SDS011;37895;53.240;6.572;2023-05-29T02:25:18;18.08;;;5.05;;
51854;SDS011;37895;53.240;6.572;2023-05-29T02:27:44;19.25;;;5.85;;
51854;SDS011;37895;53.240;6.572;2023-05-29T02:30:09;21.58;;;5.18;;
51854;SDS011;37895;53.240;6.572;2023-05-29T02:35:02;20.75;;;5.35;;
51854;SDS011;37895;53.240;6.572;2023-05-29T02:37:28;19.75;;;5.43;;
51854;SDS011;37895;53.240;6.572;2023-05-29T02:39:54;21.77;;;5.40;;
51854;SDS011;37895;53.240;6.572;2023-05-29T02:42:19;14.15;;;4.72;;
51854;SDS011;37895;53.240;6.572;2023-05-29T02:44:45;19.10;;;5.00;;
51854;SDS011;37895;53.240;6.572;2023-05-29T02:47:11;20.58;;;5.68;;
51854;SDS011;37895;53.240;6.572;2023-05-29T02:49:36;19.92;;;5.88;;
51854;SDS011;37895;53.240;6.572;2023-05-29T02:52:02;20.02;;;5.22;;
51854;SDS011;37895;53.240;6.572;2023-05-29T02:54:28;22.38;;;5.75;;
51854;SDS011;37895;53.240;6.572;2023-05-29T02:56:53;21.10;;;5.67;;
51854;SDS011;37895;53.240;6.572;2023-05-29T02:59:19;19.45;;;6.13;;
51854;SDS011;37895;53.240;6.572;2023-05-29T03:01:45;23.08;;;6.05;;
51854;SDS011;37895;53.240;6.572;2023-05-29T03:04:12;16.83;;;5.30;;
51854;SDS011;37895;53.240;6.572;2023-05-29T03:06:37;18.98;;;5.45;;
51854;SDS011;37895;53.240;6.572;2023-05-29T03:09:03;24.23;;;5.45;;
51854;SDS011;37895;53.240;6.572;2023-05-29T03:11:32;18.60;;;5.35;;
51854;SDS011;37895;53.240;6.572;2023-05-29T03:13:58;22.00;;;5.72;;
51854;SDS011;37895;53.240;6.572;2023-05-29T03:16:24;19.17;;;6.28;;
51854;SDS011;37895;53.240;6.572;2023-05-29T03:18:50;17.05;;;5.88;;
51854;SDS011;37895;53.240;6.572;2023-05-29T03:21:16;13.07;;;4.93;;
51854;SDS011;37895;53.240;6.572;2023-05-29T03:23:42;17.85;;;5.55;;
51854;SDS011;37895;53.240;6.572;2023-05-29T03:26:08;17.15;;;4.57;;
51854;SDS011;37895;53.240;6.572;2023-05-29T03:28:33;17.35;;;5.07;;
51854;SDS011;37895;53.240;6.572;2023-05-29T03:30:59;16.92;;;5.38;;
51854;SDS011;37895;53.240;6.572;2023-05-29T03:33:25;18.15;;;5.32;;
51854;SDS011;37895;53.240;6.572;2023-05-29T03:35:51;23.20;;;6.13;;
51854;SDS011;37895;53.240;6.572;2023-05-29T03:38:16;12.25;;;4.40;;
51854;SDS011;37895;53.240;6.572;2023-05-29T03:40:42;19.50;;;5.22;;
51854;SDS011;37895;53.240;6.572;2023-05-29T03:43:08;15.85;;;4.93;;
51854;SDS011;37895;53.240;6.572;2023-05-29T03:45:33;18.20;;;4.85;;
51854;SDS011;37895;53.240;6.572;2023-05-29T03:47:59;19.55;;;5.40;;
51854;SDS011;37895;53.240;6.572;2023-05-29T03:50:25;13.40;;;4.25;;
51854;SDS011;37895;53.240;6.572;2023-05-29T03:52:50;16.17;;;4.80;;
51854;SDS011;37895;53.240;6.572;2023-05-29T03:55:16;16.02;;;4.60;;
51854;SDS011;37895;53.240;6.572;2023-05-29T03:57:41;15.82;;;4.35;;
51854;SDS011;37895;53.240;6.572;2023-05-29T04:00:08;17.20;;;5.47;;
51854;SDS011;37895;53.240;6.572;2023-05-29T04:02:38;16.00;;;4.72;;
51854;SDS011;37895;53.240;6.572;2023-05-29T04:05:05;15.23;;;4.82;;
51854;SDS011;37895;53.240;6.572;2023-05-29T04:07:34;18.67;;;5.50;;
51854;SDS011;37895;53.240;6.572;2023-05-29T04:10:04;20.92;;;5.45;;
51854;SDS011;37895;53.240;6.572;2023-05-29T04:12:31;12.77;;;4.57;;
51854;SDS011;37895;53.240;6.572;2023-05-29T04:14:58;15.00;;;4.68;;
51854;SDS011;37895;53.240;6.572;2023-05-29T04:17:24;17.73;;;5.15;;
51854;SDS011;37895;53.240;6.572;2023-05-29T04:19:49;18.17;;;4.28;;
51854;SDS011;37895;53.240;6.572;2023-05-29T04:22:15;14.35;;;4.57;;
51854;SDS011;37895;53.240;6.572;2023-05-29T04:24:41;20.17;;;5.57;;
51854;SDS011;37895;53.240;6.572;2023-05-29T04:27:07;12.15;;;4.28;;
51854;SDS011;37895;53.240;6.572;2023-05-29T04:29:34;16.42;;;4.90;;
51854;SDS011;37895;53.240;6.572;2023-05-29T04:34:28;17.30;;;4.70;;
51854;SDS011;37895;53.240;6.572;2023-05-29T04:36:57;18.27;;;4.63;;
51854;SDS011;37895;53.240;6.572;2023-05-29T04:39:23;17.90;;;4.65;;
51854;SDS011;37895;53.240;6.572;2023-05-29T04:41:50;17.27;;;4.85;;
51854;SDS011;37895;53.240;6.572;2023-05-29T04:44:16;17.27;;;4.78;;
51854;SDS011;37895;53.240;6.572;2023-05-29T04:46:43;18.17;;;5.10;;
51854;SDS011;37895;53.240;6.572;2023-05-29T04:49:12;14.35;;;4.55;;
51854;SDS011;37895;53.240;6.572;2023-05-29T04:51:40;16.92;;;4.90;;
51854;SDS011;37895;53.240;6.572;2023-05-29T04:54:06;19.20;;;4.93;;
51854;SDS011;37895;53.240;6.572;2023-05-29T04:56:34;19.70;;;5.70;;
51854;SDS011;37895;53.240;6.572;2023-05-29T04:58:59;19.73;;;5.68;;
51854;SDS011;37895;53.240;6.572;2023-05-29T05:01:25;19.92;;;5.53;;
51854;SDS011;37895;53.240;6.572;2023-05-29T05:03:51;18.00;;;5.05;;
51854;SDS011;37895;53.240;6.572;2023-05-29T05:06:23;16.27;;;4.95;;
51854;SDS011;37895;53.240;6.572;2023-05-29T05:08:50;18.83;;;4.68;;
51854;SDS011;37895;53.240;6.572;2023-05-29T05:13:43;19.73;;;6.53;;
51854;SDS011;37895;53.240;6.572;2023-05-29T05:16:09;21.67;;;5.38;;
51854;SDS011;37895;53.240;6.572;2023-05-29T05:18:35;21.13;;;5.22;;
51854;SDS011;37895;53.240;6.572;2023-05-29T05:21:01;17.08;;;5.15;;
51854;SDS011;37895;53.240;6.572;2023-05-29T05:23:30;20.40;;;5.22;;
51854;SDS011;37895;53.240;6.572;2023-05-29T05:25:56;17.48;;;5.22;;
51854;SDS011;37895;53.240;6.572;2023-05-29T05:28:22;16.80;;;5.75;;
51854;SDS011;37895;53.240;6.572;2023-05-29T05:30:48;17.65;;;5.30;;
51854;SDS011;37895;53.240;6.572;2023-05-29T05:33:13;17.85;;;5.28;;
51854;SDS011;37895;53.240;6.572;2023-05-29T05:35:39;24.05;;;6.80;;
51854;SDS011;37895;53.240;6.572;2023-05-29T05:38:04;18.35;;;5.38;;
51854;SDS011;37895;53.240;6.572;2023-05-29T05:42:56;19.23;;;5.43;;
51854;SDS011;37895;53.240;6.572;2023-05-29T05:45:22;21.55;;;5.97;;
51854;SDS011;37895;53.240;6.572;2023-05-29T05:47:48;20.13;;;5.45;;
51854;SDS011;37895;53.240;6.572;2023-05-29T05:50:13;24.05;;;6.13;;
51854;SDS011;37895;53.240;6.572;2023-05-29T05:52:39;18.83;;;5.57;;
51854;SDS011;37895;53.240;6.572;2023-05-29T05:55:05;20.25;;;5.95;;
51854;SDS011;37895;53.240;6.572;2023-05-29T05:57:31;20.50;;;6.05;;
51854;SDS011;37895;53.240;6.572;2023-05-29T06:00:01;19.90;;;6.05;;
51854;SDS011;37895;53.240;6.572;2023-05-29T06:02:39;23.73;;;6.80;;
51854;SDS011;37895;53.240;6.572;2023-05-29T06:05:09;21.95;;;6.28;;
51854;SDS011;37895;53.240;6.572;2023-05-29T06:07:35;21.80;;;6.63;;
51854;SDS011;37895;53.240;6.572;2023-05-29T06:10:01;22.00;;;5.90;;
51854;SDS011;37895;53.240;6.572;2023-05-29T06:12:28;21.45;;;6.15;;
51854;SDS011;37895;53.240;6.572;2023-05-29T06:14:54;28.70;;;6.55;;
51854;SDS011;37895;53.240;6.572;2023-05-29T06:17:20;23.80;;;5.50;;
51854;SDS011;37895;53.240;6.572;2023-05-29T06:19:46;26.77;;;6.30;;
51854;SDS011;37895;53.240;6.572;2023-05-29T06:22:13;20.65;;;5.63;;
51854;SDS011;37895;53.240;6.572;2023-05-29T06:24:39;21.80;;;5.03;;
51854;SDS011;37895;53.240;6.572;2023-05-29T06:27:05;18.63;;;5.60;;
51854;SDS011;37895;53.240;6.572;2023-05-29T06:29:31;17.83;;;5.82;;
51854;SDS011;37895;53.240;6.572;2023-05-29T06:31:57;19.15;;;6.05;;
51854;SDS011;37895;53.240;6.572;2023-05-29T06:34:23;17.38;;;5.25;;
51854;SDS011;37895;53.240;6.572;2023-05-29T06:36:49;22.92;;;5.50;;
51854;SDS011;37895;53.240;6.572;2023-05-29T06:39:14;23.05;;;6.13;;
51854;SDS011;37895;53.240;6.572;2023-05-29T06:41:40;19.35;;;6.32;;
51854;SDS011;37895;53.240;6.572;2023-05-29T06:44:06;22.80;;;6.10;;
51854;SDS011;37895;53.240;6.572;2023-05-29T06:46:32;20.85;;;5.65;;
51854;SDS011;37895;53.240;6.572;2023-05-29T06:48:57;18.10;;;5.43;;
51854;SDS011;37895;53.240;6.572;2023-05-29T06:51:23;17.48;;;5.85;;
51854;SDS011;37895;53.240;6.572;2023-05-29T06:53:48;19.05;;;5.78;;
51854;SDS011;37895;53.240;6.572;2023-05-29T06:56:14;19.60;;;5.57;;
51854;SDS011;37895;53.240;6.572;2023-05-29T06:58:40;22.73;;;5.40;;
51854;SDS011;37895;53.240;6.572;2023-05-29T07:01:06;21.17;;;5.82;;
51854;SDS011;37895;53.240;6.572;2023-05-29T07:03:31;19.85;;;5.63;;
51854;SDS011;37895;53.240;6.572;2023-05-29T07:05:57;31.27;;;6.00;;
51854;SDS011;37895;53.240;6.572;2023-05-29T07:08:23;17.30;;;5.10;;
51854;SDS011;37895;53.240;6.572;2023-05-29T07:10:49;21.02;;;5.93;;
51854;SDS011;37895;53.240;6.572;2023-05-29T07:13:16;18.60;;;5.50;;
51854;SDS011;37895;53.240;6.572;2023-05-29T07:15:42;21.23;;;5.50;;
51854;SDS011;37895;53.240;6.572;2023-05-29T07:18:11;22.98;;;6.00;;
51854;SDS011;37895;53.240;6.572;2023-05-29T07:20:37;24.20;;;5.15;;
51854;SDS011;37895;53.240;6.572;2023-05-29T07:23:02;24.08;;;6.00;;
51854;SDS011;37895;53.240;6.572;2023-05-29T07:25:28;21.23;;;6.07;;
51854;SDS011;37895;53.240;6.572;2023-05-29T07:30:20;24.02;;;5.65;;
51854;SDS011;37895;53.240;6.572;2023-05-29T07:32:46;21.88;;;5.25;;
51854;SDS011;37895;53.240;6.572;2023-05-29T07:35:11;19.40;;;5.65;;
51854;SDS011;37895;53.240;6.572;2023-05-29T07:37:37;19.98;;;6.30;;
51854;SDS011;37895;53.240;6.572;2023-05-29T07:40:03;20.95;;;5.47;;
51854;SDS011;37895;53.240;6.572;2023-05-29T07:42:32;24.65;;;6.38;;
51854;SDS011;37895;53.240;6.572;2023-05-29T07:47:23;18.25;;;5.57;;
51854;SDS011;37895;53.240;6.572;2023-05-29T07:49:49;17.42;;;5.53;;
51854;SDS011;37895;53.240;6.572;2023-05-29T07:52:17;23.67;;;5.80;;
51854;SDS011;37895;53.240;6.572;2023-05-29T07:54:42;20.23;;;5.45;;
51854;SDS011;37895;53.240;6.572;2023-05-29T07:57:08;21.45;;;5.88;;
51854;SDS011;37895;53.240;6.572;2023-05-29T07:59:37;18.27;;;5.20;;
51854;SDS011;37895;53.240;6.572;2023-05-29T08:02:05;21.20;;;5.85;;
51854;SDS011;37895;53.240;6.572;2023-05-29T08:04:31;23.30;;;5.78;;
51854;SDS011;37895;53.240;6.572;2023-05-29T08:09:23;23.63;;;5.20;;
51854;SDS011;37895;53.240;6.572;2023-05-29T08:11:49;19.77;;;5.22;;
51854;SDS011;37895;53.240;6.572;2023-05-29T08:14:14;21.98;;;5.45;;
51854;SDS011;37895;53.240;6.572;2023-05-29T08:16:41;20.13;;;5.45;;
51854;SDS011;37895;53.240;6.572;2023-05-29T08:19:06;22.33;;;6.07;;
51854;SDS011;37895;53.240;6.572;2023-05-29T08:21:32;22.48;;;5.40;;
51854;SDS011;37895;53.240;6.572;2023-05-29T08:23:58;19.75;;;5.43;;
51854;SDS011;37895;53.240;6.572;2023-05-29T08:28:50;21.25;;;5.55;;
51854;SDS011;37895;53.240;6.572;2023-05-29T08:31:16;22.80;;;5.20;;
51854;SDS011;37895;53.240;6.572;2023-05-29T08:33:42;22.20;;;5.40;;
51854;SDS011;37895;53.240;6.572;2023-05-29T08:36:08;23.48;;;6.05;;
51854;SDS011;37895;53.240;6.572;2023-05-29T08:38:34;19.95;;;6.90;;
51854;SDS011;37895;53.240;6.572;2023-05-29T08:41:00;25.33;;;6.32;;
51854;SDS011;37895;53.240;6.572;2023-05-29T08:43:29;24.80;;;5.50;;
51854;SDS011;37895;53.240;6.572;2023-05-29T08:45:59;20.88;;;5.03;;
51854;SDS011;37895;53.240;6.572;2023-05-29T08:48:26;13.27;;;4.68;;
51854;SDS011;37895;53.240;6.572;2023-05-29T08:50:54;19.23;;;5.20;;
51854;SDS011;37895;53.240;6.572;2023-05-29T08:53:24;22.02;;;5.15;;
51854;SDS011;37895;53.240;6.572;2023-05-29T08:55:51;22.50;;;5.45;;
51854;SDS011;37895;53.240;6.572;2023-05-29T08:58:18;25.23;;;6.63;;
51854;SDS011;37895;53.240;6.572;2023-05-29T09:00:46;20.10;;;5.28;;
51854;SDS011;37895;53.240;6.572;2023-05-29T09:03:13;19.63;;;5.45;;
51854;SDS011;37895;53.240;6.572;2023-05-29T09:05:39;18.13;;;6.10;;
51854;SDS011;37895;53.240;6.572;2023-05-29T09:08:09;25.65;;;5.88;;
51854;SDS011;37895;53.240;6.572;2023-05-29T09:10:37;23.58;;;6.68;;
51854;SDS011;37895;53.240;6.572;2023-05-29T09:13:04;22.80;;;6.80;;
51854;SDS011;37895;53.240;6.572;2023-05-29T09:15:30;30.00;;;6.13;;
51854;SDS011;37895;53.240;6.572;2023-05-29T09:17:57;19.30;;;5.35;;
51854;SDS011;37895;53.240;6.572;2023-05-29T09:20:23;21.67;;;5.45;;
51854;SDS011;37895;53.240;6.572;2023-05-29T09:22:56;18.13;;;4.78;;
51854;SDS011;37895;53.240;6.572;2023-05-29T09:25:23;18.60;;;5.10;;
51854;SDS011;37895;53.240;6.572;2023-05-29T09:28:12;20.50;;;5.85;;
51854;SDS011;37895;53.240;6.572;2023-05-29T09:30:42;24.02;;;6.82;;
51854;SDS011;37895;53.240;6.572;2023-05-29T09:33:14;18.00;;;5.65;;
51854;SDS011;37895;53.240;6.572;2023-05-29T09:35:42;23.42;;;7.60;;
51854;SDS011;37895;53.240;6.572;2023-05-29T09:38:09;21.27;;;6.38;;
51854;SDS011;37895;53.240;6.572;2023-05-29T09:40:37;20.92;;;5.18;;
51854;SDS011;37895;53.240;6.572;2023-05-29T09:45:42;22.98;;;6.60;;
51854;SDS011;37895;53.240;6.572;2023-05-29T09:48:22;20.08;;;6.80;;
51854;SDS011;37895;53.240;6.572;2023-05-29T09:50:49;19.65;;;6.78;;
51854;SDS011;37895;53.240;6.572;2023-05-29T09:53:18;24.15;;;6.30;;
51854;SDS011;37895;53.240;6.572;2023-05-29T09:55:50;18.48;;;5.95;;
51854;SDS011;37895;53.240;6.572;2023-05-29T09:58:19;21.80;;;7.28;;
51854;SDS011;37895;53.240;6.572;2023-05-29T10:00:47;23.83;;;5.97;;
51854;SDS011;37895;53.240;6.572;2023-05-29T10:03:14;15.93;;;5.20;;
51854;SDS011;37895;53.240;6.572;2023-05-29T10:05:40;18.13;;;5.70;;
51854;SDS011;37895;53.240;6.572;2023-05-29T10:08:11;20.05;;;5.65;;
51854;SDS011;37895;53.240;6.572;2023-05-29T10:10:40;21.48;;;6.30;;
51854;SDS011;37895;53.240;6.572;2023-05-29T10:13:12;19.77;;;6.00;;
51854;SDS011;37895;53.240;6.572;2023-05-29T10:15:42;19.83;;;5.35;;
51854;SDS011;37895;53.240;6.572;2023-05-29T10:18:16;20.75;;;6.35;;
51854;SDS011;37895;53.240;6.572;2023-05-29T10:21:06;21.63;;;5.60;;
51854;SDS011;37895;53.240;6.572;2023-05-29T10:23:36;20.00;;;5.32;;
51854;SDS011;37895;53.240;6.572;2023-05-29T10:26:09;17.63;;;5.53;;
51854;SDS011;37895;53.240;6.572;2023-05-29T10:28:39;20.83;;;5.72;;
51854;SDS011;37895;53.240;6.572;2023-05-29T10:31:12;20.85;;;5.78;;
51854;SDS011;37895;53.240;6.572;2023-05-29T10:33:49;20.45;;;6.45;;
51854;SDS011;37895;53.240;6.572;2023-05-29T10:36:25;20.67;;;5.93;;
51854;SDS011;37895;53.240;6.572;2023-05-29T10:38:57;28.35;;;6.05;;
51854;SDS011;37895;53.240;6.572;2023-05-29T10:43:59;18.38;;;5.43;;
51854;SDS011;37895;53.240;6.572;2023-05-29T10:49:18;21.60;;;5.30;;
51854;SDS011;37895;53.240;6.572;2023-05-29T10:51:44;17.33;;;5.05;;
51854;SDS011;37895;53.240;6.572;2023-05-29T10:54:11;20.33;;;5.32;;
51854;SDS011;37895;53.240;6.572;2023-05-29T10:56:38;19.08;;;5.05;;
51854;SDS011;37895;53.240;6.572;2023-05-29T10:59:06;21.52;;;6.38;;
51854;SDS011;37895;53.240;6.572;2023-05-29T11:01:33;20.98;;;5.53;;
51854;SDS011;37895;53.240;6.572;2023-05-29T11:06:43;20.33;;;6.45;;
51854;SDS011;37895;53.240;6.572;2023-05-29T11:09:28;15.02;;;5.82;;
51854;SDS011;37895;53.240;6.572;2023-05-29T11:15:08;22.25;;;5.32;;
51854;SDS011;37895;53.240;6.572;2023-05-29T11:25:42;20.50;;;5.32;;
51854;SDS011;37895;53.240;6.572;2023-05-29T11:28:10;20.25;;;5.47;;
51854;SDS011;37895;53.240;6.572;2023-05-29T11:33:09;18.02;;;4.85;;
51854;SDS011;37895;53.240;6.572;2023-05-29T11:35:55;21.33;;;6.15;;
51854;SDS011;37895;53.240;6.572;2023-05-29T11:38:23;22.73;;;5.53;;
51854;SDS011;37895;53.240;6.572;2023-05-29T11:40:50;20.95;;;5.90;;
51854;SDS011;37895;53.240;6.572;2023-05-29T11:43:17;16.45;;;5.40;;
51854;SDS011;37895;53.240;6.572;2023-05-29T11:45:42;23.15;;;4.47;;
51854;SDS011;37895;53.240;6.572;2023-05-29T11:48:08;14.52;;;4.65;;
51854;SDS011;37895;53.240;6.572;2023-05-29T11:50:35;19.83;;;4.60;;
51854;SDS011;37895;53.240;6.572;2023-05-29T11:53:01;19.08;;;5.47;;
51854;SDS011;37895;53.240;6.572;2023-05-29T11:55:27;24.25;;;6.10;;
51854;SDS011;37895;53.240;6.572;2023-05-29T11:57:59;26.52;;;6.75;;
51854;SDS011;37895;53.240;6.572;2023-05-29T12:00:30;21.80;;;5.13;;
51854;SDS011;37895;53.240;6.572;2023-05-29T12:03:01;19.08;;;5.53;;
51854;SDS011;37895;53.240;6.572;2023-05-29T12:05:29;16.83;;;5.13;;
51854;SDS011;37895;53.240;6.572;2023-05-29T12:08:08;22.05;;;4.80;;
51854;SDS011;37895;53.240;6.572;2023-05-29T12:10:35;24.80;;;5.35;;
51854;SDS011;37895;53.240;6.572;2023-05-29T12:13:01;26.55;;;5.72;;
51854;SDS011;37895;53.240;6.572;2023-05-29T12:15:26;19.40;;;5.57;;
51854;SDS011;37895;53.240;6.572;2023-05-29T12:17:53;16.92;;;4.82;;
51854;SDS011;37895;53.240;6.572;2023-05-29T12:20:22;23.98;;;5.50;;
51854;SDS011;37895;53.240;6.572;2023-05-29T12:22:48;21.90;;;4.85;;
51854;SDS011;37895;53.240;6.572;2023-05-29T12:25:15;25.05;;;5.90;;
51854;SDS011;37895;53.240;6.572;2023-05-29T12:27:45;13.75;;;4.78;;
51854;SDS011;37895;53.240;6.572;2023-05-29T12:30:12;16.27;;;5.00;;
51854;SDS011;37895;53.240;6.572;2023-05-29T12:32:40;20.15;;;5.05;;
51854;SDS011;37895;53.240;6.572;2023-05-29T12:35:11;16.45;;;4.72;;
51854;SDS011;37895;53.240;6.572;2023-05-29T12:37:48;15.98;;;4.38;;
51854;SDS011;37895;53.240;6.572;2023-05-29T12:40:26;18.52;;;4.50;;
51854;SDS011;37895;53.240;6.572;2023-05-29T12:42:57;14.43;;;4.63;;
51854;SDS011;37895;53.240;6.572;2023-05-29T12:45:31;18.85;;;5.13;;
51854;SDS011;37895;53.240;6.572;2023-05-29T12:47:59;15.05;;;3.88;;
51854;SDS011;37895;53.240;6.572;2023-05-29T12:50:31;12.68;;;3.95;;
51854;SDS011;37895;53.240;6.572;2023-05-29T12:52:58;22.48;;;5.35;;
51854;SDS011;37895;53.240;6.572;2023-05-29T12:55:35;14.38;;;4.80;;
51854;SDS011;37895;53.240;6.572;2023-05-29T12:58:05;15.52;;;4.28;;
51854;SDS011;37895;53.240;6.572;2023-05-29T13:00:33;16.65;;;4.80;;
51854;SDS011;37895;53.240;6.572;2023-05-29T13:02:59;15.40;;;4.00;;
51854;SDS011;37895;53.240;6.572;2023-05-29T13:05:26;16.55;;;4.32;;
51854;SDS011;37895;53.240;6.572;2023-05-29T13:07:52;14.85;;;4.15;;
51854;SDS011;37895;53.240;6.572;2023-05-29T13:10:18;16.80;;;4.25;;
51854;SDS011;37895;53.240;6.572;2023-05-29T13:12:45;13.65;;;3.80;;
51854;SDS011;37895;53.240;6.572;2023-05-29T13:15:11;14.52;;;3.88;;
51854;SDS011;37895;53.240;6.572;2023-05-29T13:17:38;16.48;;;4.45;;
51854;SDS011;37895;53.240;6.572;2023-05-29T13:20:10;16.83;;;5.20;;
51854;SDS011;37895;53.240;6.572;2023-05-29T13:22:37;12.63;;;3.92;;
51854;SDS011;37895;53.240;6.572;2023-05-29T13:25:04;14.13;;;3.63;;
51854;SDS011;37895;53.240;6.572;2023-05-29T13:27:31;16.25;;;4.72;;
51854;SDS011;37895;53.240;6.572;2023-05-29T13:30:02;23.00;;;4.65;;
51854;SDS011;37895;53.240;6.572;2023-05-29T13:32:28;14.52;;;4.55;;
51854;SDS011;37895;53.240;6.572;2023-05-29T13:34:54;15.88;;;3.90;;
51854;SDS011;37895;53.240;6.572;2023-05-29T13:37:20;18.90;;;5.13;;
51854;SDS011;37895;53.240;6.572;2023-05-29T13:39:46;16.65;;;3.90;;
51854;SDS011;37895;53.240;6.572;2023-05-29T13:42:12;14.63;;;4.85;;
51854;SDS011;37895;53.240;6.572;2023-05-29T13:44:38;19.77;;;4.40;;
51854;SDS011;37895;53.240;6.572;2023-05-29T13:49:33;14.43;;;3.97;;
51854;SDS011;37895;53.240;6.572;2023-05-29T13:51:59;13.45;;;3.95;;
51854;SDS011;37895;53.240;6.572;2023-05-29T13:54:25;12.63;;;4.00;;
51854;SDS011;37895;53.240;6.572;2023-05-29T13:56:54;11.60;;;3.92;;
51854;SDS011;37895;53.240;6.572;2023-05-29T13:59:21;11.82;;;3.45;;
51854;SDS011;37895;53.240;6.572;2023-05-29T14:01:47;13.52;;;3.83;;
51854;SDS011;37895;53.240;6.572;2023-05-29T14:04:13;19.42;;;6.32;;
51854;SDS011;37895;53.240;6.572;2023-05-29T14:06:38;15.07;;;4.82;;
51854;SDS011;37895;53.240;6.572;2023-05-29T14:11:34;15.57;;;4.28;;
51854;SDS011;37895;53.240;6.572;2023-05-29T14:14:03;8.80;;;3.20;;
51854;SDS011;37895;53.240;6.572;2023-05-29T14:16:29;13.32;;;3.95;;
51854;SDS011;37895;53.240;6.572;2023-05-29T14:18:55;12.68;;;3.80;;
51854;SDS011;37895;53.240;6.572;2023-05-29T14:21:21;12.43;;;3.60;;
51854;SDS011;37895;53.240;6.572;2023-05-29T14:23:46;15.45;;;4.25;;
51854;SDS011;37895;53.240;6.572;2023-05-29T14:26:12;10.23;;;3.75;;
51854;SDS011;37895;53.240;6.572;2023-05-29T14:28:38;11.85;;;3.88;;
51854;SDS011;37895;53.240;6.572;2023-05-29T14:31:04;12.20;;;3.83;;
51854;SDS011;37895;53.240;6.572;2023-05-29T14:33:30;11.60;;;3.70;;
51854;SDS011;37895;53.240;6.572;2023-05-29T14:38:22;14.88;;;4.15;;
51854;SDS011;37895;53.240;6.572;2023-05-29T14:40:48;13.68;;;4.03;;
51854;SDS011;37895;53.240;6.572;2023-05-29T14:43:14;15.02;;;4.50;;
51854;SDS011;37895;53.240;6.572;2023-05-29T14:45:40;13.32;;;4.38;;
51854;SDS011;37895;53.240;6.572;2023-05-29T14:48:05;14.43;;;3.72;;
51854;SDS011;37895;53.240;6.572;2023-05-29T14:50:31;12.13;;;4.00;;
51854;SDS011;37895;53.240;6.572;2023-05-29T14:52:57;14.80;;;3.83;;
51854;SDS011;37895;53.240;6.572;2023-05-29T14:55:23;11.13;;;4.05;;
51854;SDS011;37895;53.240;6.572;2023-05-29T14:57:48;15.95;;;4.47;;
51854;SDS011;37895;53.240;6.572;2023-05-29T15:00:14;14.20;;;3.75;;
51854;SDS011;37895;53.240;6.572;2023-05-29T15:02:40;13.88;;;3.95;;
51854;SDS011;37895;53.240;6.572;2023-05-29T15:05:06;14.50;;;4.68;;
51854;SDS011;37895;53.240;6.572;2023-05-29T15:07:32;12.75;;;4.57;;
51854;SDS011;37895;53.240;6.572;2023-05-29T15:10:01;15.65;;;4.03;;
51854;SDS011;37895;53.240;6.572;2023-05-29T15:12:27;15.98;;;4.45;;
51854;SDS011;37895;53.240;6.572;2023-05-29T15:14:54;18.20;;;4.00;;
51854;SDS011;37895;53.240;6.572;2023-05-29T15:17:20;18.08;;;5.13;;
51854;SDS011;37895;53.240;6.572;2023-05-29T15:19:45;22.20;;;4.40;;
51854;SDS011;37895;53.240;6.572;2023-05-29T15:22:11;20.83;;;4.85;;
51854;SDS011;37895;53.240;6.572;2023-05-29T15:24:37;16.52;;;4.63;;
51854;SDS011;37895;53.240;6.572;2023-05-29T15:27:02;12.30;;;3.80;;
51854;SDS011;37895;53.240;6.572;2023-05-29T15:29:35;15.65;;;3.70;;
51854;SDS011;37895;53.240;6.572;2023-05-29T15:32:01;15.48;;;3.60;;
51854;SDS011;37895;53.240;6.572;2023-05-29T15:34:28;18.73;;;4.00;;
51854;SDS011;37895;53.240;6.572;2023-05-29T15:36:54;12.70;;;3.55;;
51854;SDS011;37895;53.240;6.572;2023-05-29T15:39:20;17.05;;;4.15;;
51854;SDS011;37895;53.240;6.572;2023-05-29T15:41:46;13.40;;;4.57;;